Time;durP1;ratioP1;P1;durP2;ratioP2;P2;SDS_P1;SDS_P2;PMS_P1;PMS_P2;Temp;Humidity;BMP_temperature;BMP_pressure;BME280_temperature;BME280_humidity;BME280_pressure;Samples;Min_cycle;Max_cycle;Signal;HPM_P1;HPM_P2
2023/06/03 02:06:51;;;;;;;4.78;1.92;;;;;;;;;;5051085;27;20413;-62
2023/06/03 02:09:17;;;;;;;5.57;1.80;;;;;;;;;;5057981;28;20045;-63
2023/06/03 02:11:44;;;;;;;4.13;1.90;;;;;;;;;;5057166;28;20048;-63
2023/06/03 02:14:11;;;;;;;3.58;1.75;;;;;;;;;;5064220;28;20041;-63
2023/06/03 02:16:38;;;;;;;9.45;2.55;;;;;;;;;;5047872;28;20057;-63
2023/06/03 02:19:10;;;;;;;5.78;2.10;;;;;;;;;;5059117;28;20055;-63
2023/06/03 02:21:38;;;;;;;6.72;2.10;;;;;;;;;;5061564;28;20104;-63
2023/06/03 02:24:06;;;;;;;3.85;1.77;;;;;;;;;;5060028;28;20059;-62
2023/06/03 02:26:33;;;;;;;7.45;1.85;;;;;;;;;;5047869;28;20075;-63
2023/06/03 02:29:00;;;;;;;5.15;2.28;;;;;;;;;;5062593;28;20045;-63
2023/06/03 02:31:26;;;;;;;7.25;2.20;;;;;;;;;;5055480;28;20048;-63
2023/06/03 02:33:52;;;;;;;5.88;2.10;;;;;;;;;;5063640;28;20045;-64
2023/06/03 02:36:19;;;;;;;7.50;2.03;;;;;;;;;;5049429;28;20372;-65
2023/06/03 02:38:47;;;;;;;4.80;2.22;;;;;;;;;;5061658;28;20048;-63
2023/06/03 02:41:15;;;;;;;3.58;1.52;;;;;;;;;;5055487;28;20117;-63
2023/06/03 02:43:41;;;;;;;4.03;1.80;;;;;;;;;;5058304;28;20161;-63
2023/06/03 02:46:08;;;;;;;4.18;1.83;;;;;;;;;;5055569;28;20045;-64
2023/06/03 02:48:34;;;;;;;6.47;2.00;;;;;;;;;;5050697;28;20056;-62
2023/06/03 02:51:00;;;;;;;4.25;1.98;;;;;;;;;;5063046;28;20040;-62
2023/06/03 02:53:27;;;;;;;6.30;1.98;;;;;;;;;;5054818;28;20103;-61
2023/06/03 02:55:53;;;;;;;7.00;1.75;;;;;;;;;;5057355;28;20137;-64
2023/06/03 02:58:22;;;;;;;5.95;2.35;;;;;;;;;;5072306;28;20049;-64
2023/06/03 03:00:48;;;;;;;6.15;2.17;;;;;;;;;;5058710;28;20071;-62
2023/06/03 03:03:16;;;;;;;8.38;2.00;;;;;;;;;;5060793;28;20051;-62
2023/06/03 03:05:43;;;;;;;4.03;1.73;;;;;;;;;;5033122;28;20046;-62
2023/06/03 03:08:10;;;;;;;3.80;1.63;;;;;;;;;;5035689;28;20315;-63
2023/06/03 03:10:36;;;;;;;4.20;1.75;;;;;;;;;;5030791;28;20081;-62
2023/06/03 03:13:03;;;;;;;7.00;1.90;;;;;;;;;;5018018;28;20046;-62
2023/06/03 03:15:31;;;;;;;5.22;1.70;;;;;;;;;;5014171;28;20158;-62
2023/06/03 03:17:57;;;;;;;4.03;1.70;;;;;;;;;;5020872;28;20060;-62
2023/06/03 03:20:24;;;;;;;3.55;1.75;;;;;;;;;;5019886;28;20061;-63
2023/06/03 03:22:51;;;;;;;4.15;1.70;;;;;;;;;;5024342;28;20134;-62
2023/06/03 03:25:17;;;;;;;5.93;2.40;;;;;;;;;;5017487;28;20037;-62
2023/06/03 03:27:44;;;;;;;5.40;1.98;;;;;;;;;;5021997;28;20072;-63
2023/06/03 03:30:13;;;;;;;3.95;1.70;;;;;;;;;;5005303;28;20045;-63
2023/06/03 03:32:39;;;;;;;;;;;;;;;;;;4998478;28;21581;-62
2023/06/03 03:35:23;;;;;;;3.05;1.45;;;;;;;;;;5014764;28;19928;-62
2023/06/03 03:37:51;;;;;;;4.13;1.55;;;;;;;;;;5024569;28;20049;-62
2023/06/03 03:40:18;;;;;;;3.75;1.70;;;;;;;;;;5017732;28;20041;-64
2023/06/03 03:42:47;;;;;;;7.07;1.98;;;;;;;;;;5021889;28;20053;-63
2023/06/03 03:45:16;;;;;;;5.63;1.77;;;;;;;;;;4999593;28;20049;-63
2023/06/03 03:47:42;;;;;;;3.70;1.58;;;;;;;;;;5025467;28;20065;-63
2023/06/03 03:50:16;;;;;;;5.75;1.60;;;;;;;;;;5003091;28;20132;-63
2023/06/03 03:52:44;;;;;;;8.10;1.92;;;;;;;;;;5020596;28;20049;-63
2023/06/03 03:55:11;;;;;;;4.27;1.60;;;;;;;;;;4993082;28;20056;-64
2023/06/03 03:57:39;;;;;;;3.10;1.60;;;;;;;;;;5030173;28;20081;-63
2023/06/03 04:00:09;;;;;;;3.53;1.67;;;;;;;;;;5003531;28;20064;-63
2023/06/03 04:02:36;;;;;;;7.00;1.60;;;;;;;;;;5033437;28;20069;-63
2023/06/03 04:05:13;;;;;;;7.82;1.80;;;;;;;;;;5035088;28;20052;-62
2023/06/03 04:07:40;;;;;;;3.83;1.42;;;;;;;;;;5027006;28;20053;-63
2023/06/03 04:10:11;;;;;;;4.20;1.48;;;;;;;;;;5039124;28;20127;-62
2023/06/03 04:12:37;;;;;;;3.85;1.48;;;;;;;;;;5033486;28;20049;-62
2023/06/03 04:15:04;;;;;;;6.05;1.63;;;;;;;;;;5041684;28;20443;-62
2023/06/03 04:17:31;;;;;;;3.25;1.33;;;;;;;;;;5043513;28;20061;-62
2023/06/03 04:19:59;;;;;;;4.55;1.52;;;;;;;;;;5041115;28;20119;-63
2023/06/03 04:22:26;;;;;;;4.07;1.65;;;;;;;;;;5038405;28;20198;-63
2023/06/03 04:24:54;;;;;;;6.60;1.48;;;;;;;;;;5040653;28;20083;-62
2023/06/03 04:27:22;;;;;;;3.25;1.27;;;;;;;;;;5025403;28;20052;-62
2023/06/03 04:29:48;;;;;;;3.13;1.30;;;;;;;;;;5047716;28;20045;-62
2023/06/03 04:32:15;;;;;;;3.10;1.30;;;;;;;;;;5021942;28;20046;-65
2023/06/03 04:34:49;;;;;;;1.95;1.00;;;;;;;;;;5038969;28;21195;-62
2023/06/03 04:37:15;;;;;;;3.10;1.42;;;;;;;;;;5022279;28;20049;-62
2023/06/03 04:39:42;;;;;;;3.25;1.08;;;;;;;;;;5044837;28;20065;-62
2023/06/03 04:42:10;;;;;;;6.45;1.58;;;;;;;;;;5041598;28;20511;-62
2023/06/03 04:44:39;;;;;;;4.30;1.55;;;;;;;;;;5038450;28;20100;-62
2023/06/03 04:47:05;;;;;;;;;;;;;;;;;;5041430;28;20118;-62
2023/06/03 04:49:32;;;;;;;2.55;1.33;;;;;;;;;;5026117;28;19998;-62
2023/06/03 04:52:01;;;;;;;2.15;1.20;;;;;;;;;;5033068;28;20083;-62
2023/06/03 04:54:27;;;;;;;3.13;1.25;;;;;;;;;;5017015;28;20061;-64
2023/06/03 04:56:54;;;;;;;3.95;1.27;;;;;;;;;;5040126;28;20049;-62
2023/06/03 04:59:20;;;;;;;3.58;1.30;;;;;;;;;;5024840;28;20132;-64
2023/06/03 05:01:48;;;;;;;3.13;1.40;;;;;;;;;;5039149;28;20061;-62
2023/06/03 05:04:19;;;;;;;5.45;1.17;;;;;;;;;;5025608;28;20061;-62
2023/06/03 05:06:46;;;;;;;3.67;1.17;;;;;;;;;;5015866;28;20871;-62
2023/06/03 05:09:12;;;;;;;3.08;1.05;;;;;;;;;;5025796;28;20072;-62
2023/06/03 05:11:39;;;;;;;1.75;1.02;;;;;;;;;;5024704;28;20041;-62
2023/06/03 05:14:06;;;;;;;2.60;1.20;;;;;;;;;;5024881;28;20068;-62
2023/06/03 05:16:32;;;;;;;3.55;1.50;;;;;;;;;;5017882;28;20045;-62
2023/06/03 05:19:00;;;;;;;3.03;1.30;;;;;;;;;;5020204;28;20057;-64
2023/06/03 05:21:26;;;;;;;6.20;1.10;;;;;;;;;;5022083;28;20057;-62
2023/06/03 05:23:53;;;;;;;3.13;1.02;;;;;;;;;;5008361;28;20053;-63
2023/06/03 05:26:19;;;;;;;4.20;1.00;;;;;;;;;;4999425;28;20596;-62
2023/06/03 05:28:46;;;;;;;2.22;1.00;;;;;;;;;;4996758;28;20107;-62
2023/06/03 05:31:13;;;;;;;3.70;1.17;;;;;;;;;;5010489;28;20153;-62
2023/06/03 05:33:40;;;;;;;4.10;1.20;;;;;;;;;;5020516;28;20122;-63
2023/06/03 05:36:08;;;;;;;3.65;1.05;;;;;;;;;;5018677;28;20053;-62
2023/06/03 05:38:34;;;;;;;7.05;1.40;;;;;;;;;;5016075;28;20037;-62
2023/06/03 05:41:03;;;;;;;1.98;1.20;;;;;;;;;;5022533;28;20250;-62
2023/06/03 05:43:30;;;;;;;2.65;1.10;;;;;;;;;;5018326;28;20053;-63
2023/06/03 05:45:56;;;;;;;1.73;1.02;;;;;;;;;;5019507;28;20225;-62
2023/06/03 05:48:22;;;;;;;3.08;1.15;;;;;;;;;;5000255;28;20077;-62
2023/06/03 05:50:49;;;;;;;1.83;1.10;;;;;;;;;;5020226;28;20049;-63
2023/06/03 05:53:19;;;;;;;3.10;1.13;;;;;;;;;;5023051;28;20057;-62
2023/06/03 05:55:45;;;;;;;2.25;1.10;;;;;;;;;;4999437;28;20067;-62
2023/06/03 05:58:11;;;;;;;3.35;1.20;;;;;;;;;;5005766;28;20053;-62
2023/06/03 06:00:38;;;;;;;2.08;1.10;;;;;;;;;;4994281;28;20170;-62
2023/06/03 06:03:04;;;;;;;3.28;1.10;;;;;;;;;;5004837;28;20161;-62
2023/06/03 06:05:33;;;;;;;2.92;1.30;;;;;;;;;;5005059;28;20054;-62
2023/06/03 06:07:59;;;;;;;2.45;1.10;;;;;;;;;;5043054;28;20060;-63
2023/06/03 06:10:27;;;;;;;2.25;1.00;;;;;;;;;;5031782;28;20242;-62
2023/06/03 06:12:54;;;;;;;3.15;1.02;;;;;;;;;;5035772;28;20563;-63
2023/06/03 06:15:20;;;;;;;1.90;0.90;;;;;;;;;;5019734;28;20165;-62
2023/06/03 06:17:46;;;;;;;3.10;1.15;;;;;;;;;;5022978;28;20140;-62
2023/06/03 06:20:13;;;;;;;2.00;0.90;;;;;;;;;;5007323;28;20059;-63
2023/06/03 06:22:42;;;;;;;3.22;0.95;;;;;;;;;;5036908;28;20119;-63
2023/06/03 06:25:11;;;;;;;3.00;1.20;;;;;;;;;;5035493;28;20056;-63
2023/06/03 06:27:39;;;;;;;3.20;1.27;;;;;;;;;;5043205;28;20041;-63
2023/06/03 06:30:06;;;;;;;3.58;1.27;;;;;;;;;;5028286;28;20087;-63
2023/06/03 06:32:38;;;;;;;1.63;1.08;;;;;;;;;;5035868;28;20057;-63
2023/06/03 06:35:05;;;;;;;3.35;1.10;;;;;;;;;;5023061;28;20144;-64
2023/06/03 06:37:32;;;;;;;10.30;3.50;;;;;;;;;;5006299;28;20057;-63
2023/06/03 06:39:59;;;;;;;2.95;1.20;;;;;;;;;;5003512;28;20136;-64
2023/06/03 06:42:30;;;;;;;1.85;0.93;;;;;;;;;;5031146;28;20115;-65
2023/06/03 06:44:59;;;;;;;1.50;1.00;;;;;;;;;;5013284;28;20106;-64
2023/06/03 06:47:26;;;;;;;4.82;2.45;;;;;;;;;;5011172;28;20059;-63
2023/06/03 06:49:57;;;;;;;2.63;1.27;;;;;;;;;;5042505;28;20118;-66
2023/06/03 06:52:25;;;;;;;4.40;1.80;;;;;;;;;;5021495;28;20091;-63
2023/06/03 06:54:51;;;;;;;2.65;1.30;;;;;;;;;;5021249;28;20061;-63
2023/06/03 06:57:26;;;;;;;2.58;1.00;;;;;;;;;;5037760;28;20065;-66
2023/06/03 06:59:55;;;;;;;2.88;0.90;;;;;;;;;;5038121;28;20053;-63
2023/06/03 07:02:23;;;;;;;5.43;1.05;;;;;;;;;;5020669;28;20057;-65
2023/06/03 07:04:49;;;;;;;1.77;0.90;;;;;;;;;;5015295;28;20065;-63
2023/06/03 07:07:16;;;;;;;1.75;0.90;;;;;;;;;;5003969;28;20053;-66
2023/06/03 07:09:42;;;;;;;2.20;1.10;;;;;;;;;;5008477;28;20072;-64
2023/06/03 07:12:09;;;;;;;3.35;1.00;;;;;;;;;;5021991;28;20137;-64
2023/06/03 07:14:36;;;;;;;11.82;4.05;;;;;;;;;;5002752;28;20149;-65
2023/06/03 07:17:02;;;;;;;4.60;1.80;;;;;;;;;;5022014;28;20093;-64
2023/06/03 07:19:35;;;;;;;3.17;1.00;;;;;;;;;;5027548;28;20053;-66
2023/06/03 07:22:01;;;;;;;2.17;0.95;;;;;;;;;;5030576;28;20084;-65
2023/06/03 07:24:30;;;;;;;3.10;1.15;;;;;;;;;;5024527;28;21069;-66
2023/06/03 07:26:57;;;;;;;2.30;0.93;;;;;;;;;;5008604;28;20053;-64
2023/06/03 07:29:23;;;;;;;3.53;0.95;;;;;;;;;;5022839;28;20072;-66
2023/06/03 07:31:50;;;;;;;3.13;0.80;;;;;;;;;;5016622;28;20145;-66
2023/06/03 07:34:21;;;;;;;3.88;1.20;;;;;;;;;;5003087;28;20714;-63
2023/06/03 07:36:52;;;;;;;7.88;2.65;;;;;;;;;;5019670;28;20143;-65
2023/06/03 07:39:19;;;;;;;10.13;3.38;;;;;;;;;;5030426;28;20041;-65
2023/06/03 07:41:50;;;;;;;2.40;1.10;;;;;;;;;;5005953;28;20054;-63
2023/06/03 07:44:19;;;;;;;4.43;1.02;;;;;;;;;;4999899;28;20057;-64
2023/06/03 07:46:46;;;;;;;8.70;1.15;;;;;;;;;;5018585;28;20057;-65
2023/06/03 07:49:14;;;;;;;1.25;1.00;;;;;;;;;;5018716;28;20057;-64
2023/06/03 07:51:41;;;;;;;5.93;1.00;;;;;;;;;;5005462;28;20061;-64
2023/06/03 07:54:10;;;;;;;1.83;1.00;;;;;;;;;;5002636;28;20050;-63
2023/06/03 07:56:37;;;;;;;3.28;1.20;;;;;;;;;;5002730;28;20048;-65
2023/06/03 07:59:04;;;;;;;1.65;1.00;;;;;;;;;;5007289;28;20038;-64
2023/06/03 08:01:35;;;;;;;4.00;1.27;;;;;;;;;;5023633;28;20053;-63
2023/06/03 08:04:02;;;;;;;1.98;0.90;;;;;;;;;;5018494;28;20063;-63
2023/06/03 08:06:28;;;;;;;1.73;1.05;;;;;;;;;;5015648;28;20061;-64
2023/06/03 08:08:56;;;;;;;5.68;1.23;;;;;;;;;;5040359;28;20077;-64
2023/06/03 08:11:25;;;;;;;1.48;0.85;;;;;;;;;;5025237;28;20053;-63
2023/06/03 08:13:53;;;;;;;2.70;1.20;;;;;;;;;;5021696;28;20081;-62
2023/06/03 08:16:21;;;;;;;2.65;1.17;;;;;;;;;;5016546;28;20117;-65
2023/06/03 08:18:50;;;;;;;4.97;0.90;;;;;;;;;;5038417;28;21291;-66
2023/06/03 08:21:16;;;;;;;8.35;2.45;;;;;;;;;;5044113;28;20123;-62
2023/06/03 08:23:43;;;;;;;1.25;0.73;;;;;;;;;;5043432;28;20076;-64
2023/06/03 08:26:10;;;;;;;9.18;4.03;;;;;;;;;;5019382;28;20132;-65
2023/06/03 08:28:39;;;;;;;2.70;1.30;;;;;;;;;;5035788;28;20152;-64
2023/06/03 08:31:06;;;;;;;1.92;0.93;;;;;;;;;;5022608;28;20087;-63
2023/06/03 08:33:32;;;;;;;2.13;1.15;;;;;;;;;;5042266;28;20059;-64
2023/06/03 08:35:59;;;;;;;5.15;0.75;;;;;;;;;;5019422;28;20057;-66
2023/06/03 08:38:25;;;;;;;2.13;0.93;;;;;;;;;;5020795;28;20129;-66
2023/06/03 08:40:52;;;;;;;2.05;0.95;;;;;;;;;;5021362;28;20068;-64
2023/06/03 08:43:18;;;;;;;2.20;0.90;;;;;;;;;;5040513;28;20064;-64
2023/06/03 08:45:53;;;;;;;1.40;0.68;;;;;;;;;;5024580;28;20057;-63
2023/06/03 08:48:24;;;;;;;4.80;1.10;;;;;;;;;;5037072;28;20088;-64
2023/06/03 08:50:57;;;;;;;2.10;1.10;;;;;;;;;;5039173;28;20059;-63
2023/06/03 08:53:24;;;;;;;2.75;1.10;;;;;;;;;;5025772;28;20112;-67
2023/06/03 08:55:53;;;;;;;2.72;0.77;;;;;;;;;;5019801;28;20183;-63
2023/06/03 08:58:22;;;;;;;4.68;0.90;;;;;;;;;;5040559;28;20060;-64
2023/06/03 09:00:52;;;;;;;3.95;0.82;;;;;;;;;;5020661;28;20068;-65
2023/06/03 09:03:18;;;;;;;1.83;0.95;;;;;;;;;;5042037;28;20088;-65
2023/06/03 09:05:45;;;;;;;1.67;0.98;;;;;;;;;;5039161;28;20053;-65
2023/06/03 09:08:15;;;;;;;2.92;0.98;;;;;;;;;;5008366;28;20064;-65
2023/06/03 09:10:42;;;;;;;1.27;0.73;;;;;;;;;;5035277;28;20100;-64
2023/06/03 09:13:08;;;;;;;2.88;1.13;;;;;;;;;;5022131;28;20057;-62
2023/06/03 09:15:36;;;;;;;2.45;0.90;;;;;;;;;;5039437;28;20100;-63
2023/06/03 09:18:04;;;;;;;1.42;0.88;;;;;;;;;;5023320;28;20052;-62
2023/06/03 09:20:30;;;;;;;1.15;0.73;;;;;;;;;;5034083;28;20116;-66
2023/06/03 09:22:57;;;;;;;5.57;1.10;;;;;;;;;;5039706;28;20111;-65
2023/06/03 09:25:23;;;;;;;3.00;0.95;;;;;;;;;;5028782;28;20056;-64
2023/06/03 09:27:49;;;;;;;2.97;1.10;;;;;;;;;;5026347;28;20072;-63
2023/06/03 09:30:17;;;;;;;2.28;0.90;;;;;;;;;;5035034;28;20140;-66
2023/06/03 09:32:44;;;;;;;5.22;0.90;;;;;;;;;;5030704;28;20061;-66
2023/06/03 09:35:12;;;;;;;5.43;1.15;;;;;;;;;;5021291;28;20120;-68
2023/06/03 09:37:38;;;;;;;;;;;;;;;;;;5017772;28;20057;-65
2023/06/03 09:40:09;;;;;;;1.65;0.70;;;;;;;;;;5042388;28;20011;-66
2023/06/03 09:42:41;;;;;;;0.85;0.63;;;;;;;;;;5025141;28;20057;-67
2023/06/03 09:45:21;;;;;;;2.17;0.70;;;;;;;;;;5033509;28;20155;-67
2023/06/03 09:47:48;;;;;;;1.75;0.85;;;;;;;;;;5034053;28;20156;-65
2023/06/03 09:50:17;;;;;;;4.40;0.98;;;;;;;;;;5030625;28;20048;-64
2023/06/03 09:52:43;;;;;;;3.25;0.82;;;;;;;;;;5030032;28;20917;-65
2023/06/03 09:55:10;;;;;;;2.53;1.05;;;;;;;;;;5034299;28;20052;-66
2023/06/03 09:57:37;;;;;;;2.22;0.80;;;;;;;;;;5025314;28;20049;-65
2023/06/03 10:00:10;;;;;;;4.05;1.02;;;;;;;;;;5033745;28;20053;-66
2023/06/03 10:02:37;;;;;;;1.25;0.85;;;;;;;;;;5029936;28;20197;-64
2023/06/03 10:05:04;;;;;;;3.13;0.70;;;;;;;;;;5029662;28;20122;-64
2023/06/03 10:07:32;;;;;;;5.30;0.90;;;;;;;;;;5036612;28;20088;-66
2023/06/03 10:10:05;;;;;;;1.25;0.70;;;;;;;;;;5015048;28;20045;-64
2023/06/03 10:12:33;;;;;;;2.33;0.80;;;;;;;;;;5004570;28;20053;-63
2023/06/03 10:15:00;;;;;;;2.60;1.10;;;;;;;;;;5031413;28;20069;-64
2023/06/03 10:17:27;;;;;;;2.17;1.30;;;;;;;;;;5039241;28;20057;-65
2023/06/03 10:19:54;;;;;;;2.95;0.80;;;;;;;;;;5035277;28;20132;-64
2023/06/03 10:22:21;;;;;;;1.30;0.70;;;;;;;;;;5032482;28;20160;-64
2023/06/03 10:24:49;;;;;;;2.42;0.85;;;;;;;;;;5018524;28;20214;-63
2023/06/03 10:27:16;;;;;;;1.00;0.70;;;;;;;;;;5035542;28;20122;-64
2023/06/03 10:29:43;;;;;;;1.48;0.70;;;;;;;;;;5038387;28;20092;-64
2023/06/03 10:32:12;;;;;;;2.40;0.75;;;;;;;;;;5020171;28;20125;-65
2023/06/03 10:34:41;;;;;;;2.15;0.70;;;;;;;;;;5015996;28;20150;-64
2023/06/03 10:37:09;;;;;;;4.38;1.33;;;;;;;;;;5025828;28;20110;-65
2023/06/03 10:39:36;;;;;;;1.58;0.70;;;;;;;;;;5039660;28;20056;-65
2023/06/03 10:42:05;;;;;;;1.98;0.90;;;;;;;;;;5042316;28;20065;-65
2023/06/03 10:44:32;;;;;;;1.52;0.70;;;;;;;;;;5036905;28;20059;-66
2023/06/03 10:47:00;;;;;;;1.23;0.60;;;;;;;;;;5036787;28;20144;-65
2023/06/03 10:49:27;;;;;;;;;;;;;;;;;;5041508;28;20063;-66
2023/06/03 10:52:20;;;;;;;3.28;1.00;;;;;;;;;;5036331;28;19994;-66
2023/06/03 10:54:52;;;;;;;4.03;0.80;;;;;;;;;;5028716;28;20060;-66
2023/06/03 10:57:22;;;;;;;1.48;0.70;;;;;;;;;;5025200;28;20048;-64
2023/06/03 10:59:48;;;;;;;1.13;0.80;;;;;;;;;;5040698;28;20247;-65
2023/06/03 11:02:16;;;;;;;0.77;0.50;;;;;;;;;;5020851;28;20063;-63
2023/06/03 11:04:45;;;;;;;1.40;0.70;;;;;;;;;;5014370;28;20051;-67
2023/06/03 11:07:30;;;;;;;1.60;0.70;;;;;;;;;;5023090;28;20041;-66
2023/06/03 11:09:56;;;;;;;1.83;0.90;;;;;;;;;;4999881;28;20053;-66
2023/06/03 11:12:44;;;;;;;1.55;0.70;;;;;;;;;;5005681;28;20061;-70
2023/06/03 11:15:19;;;;;;;1.58;0.80;;;;;;;;;;4987918;28;20054;-68
2023/06/03 11:18:14;;;;;;;1.63;0.88;;;;;;;;;;5003326;28;20061;-66
2023/06/03 11:20:40;;;;;;;1.42;0.70;;;;;;;;;;5014636;28;21936;-68
2023/06/03 11:23:07;;;;;;;4.75;0.73;;;;;;;;;;5021227;28;20053;-67
2023/06/03 11:25:33;;;;;;;0.90;0.55;;;;;;;;;;5002812;28;20110;-66
2023/06/03 11:28:36;;;;;;;0.93;0.73;;;;;;;;;;5015646;28;20060;-65
2023/06/03 11:31:07;;;;;;;0.98;0.52;;;;;;;;;;5007238;28;20197;-66
2023/06/03 11:33:33;;;;;;;1.90;0.80;;;;;;;;;;5014424;28;20049;-67
2023/06/03 11:36:29;;;;;;;2.63;0.80;;;;;;;;;;5001211;28;20049;-66
2023/06/03 11:38:59;;;;;;;4.70;0.70;;;;;;;;;;5013079;28;20312;-67
2023/06/03 11:41:44;;;;;;;1.08;0.63;;;;;;;;;;4998144;28;20053;-67
2023/06/03 11:44:21;;;;;;;0.95;0.60;;;;;;;;;;5010529;28;20069;-66
2023/06/03 11:46:53;;;;;;;4.05;0.70;;;;;;;;;;4980756;28;20080;-67
2023/06/03 11:49:21;;;;;;;1.67;0.70;;;;;;;;;;5016135;28;20067;-66
2023/06/03 11:51:48;;;;;;;;;;;;;;;;;;5018921;28;20071;-67
2023/06/03 11:54:15;;;;;;;1.15;0.70;;;;;;;;;;5014527;28;19925;-68
2023/06/03 11:56:45;;;;;;;1.65;0.70;;;;;;;;;;5009392;28;20062;-67
2023/06/03 11:59:12;;;;;;;1.63;0.60;;;;;;;;;;5013557;28;20073;-64
2023/06/03 12:01:53;;;;;;;1.05;0.60;;;;;;;;;;5001139;28;20061;-64
2023/06/03 12:04:21;;;;;;;2.38;0.80;;;;;;;;;;4992130;28;20054;-67
2023/06/03 12:06:48;;;;;;;0.98;0.65;;;;;;;;;;5014697;28;20057;-65
2023/06/03 12:09:16;;;;;;;1.20;0.68;;;;;;;;;;5034049;28;20057;-65
2023/06/03 12:11:46;;;;;;;1.90;0.57;;;;;;;;;;5015888;28;20084;-63
2023/06/03 12:14:24;;;;;;;2.55;1.10;;;;;;;;;;5036284;28;20065;-65
2023/06/03 12:16:54;;;;;;;5.03;0.95;;;;;;;;;;5016071;28;20063;-67
2023/06/03 12:19:22;;;;;;;1.15;0.50;;;;;;;;;;5018050;28;20052;-66
2023/06/03 12:21:55;;;;;;;1.88;0.65;;;;;;;;;;5044698;28;20045;-65
2023/06/03 12:24:27;;;;;;;6.25;1.00;;;;;;;;;;5029284;28;20107;-65
2023/06/03 12:26:54;;;;;;;0.70;0.57;;;;;;;;;;5036745;28;20056;-65
2023/06/03 12:29:35;;;;;;;1.88;0.77;;;;;;;;;;5033400;28;20107;-67
2023/06/03 12:32:03;;;;;;;1.45;0.52;;;;;;;;;;5042609;28;20136;-67
2023/06/03 12:34:33;;;;;;;1.55;0.60;;;;;;;;;;5030106;28;20153;-67
2023/06/03 12:37:02;;;;;;;3.40;0.73;;;;;;;;;;5037951;28;20092;-65
2023/06/03 12:39:49;;;;;;;3.22;0.80;;;;;;;;;;5017681;28;20122;-64
2023/06/03 12:42:19;;;;;;;2.92;1.40;;;;;;;;;;5021720;28;20454;-66
2023/06/03 12:44:46;;;;;;;9.35;0.60;;;;;;;;;;5027553;28;20047;-65
2023/06/03 12:47:14;;;;;;;2.13;0.80;;;;;;;;;;5038064;28;20084;-66
2023/06/03 12:49:42;;;;;;;0.88;0.68;;;;;;;;;;5038446;28;20117;-64
2023/06/03 12:52:16;;;;;;;2.15;0.70;;;;;;;;;;5038456;28;20148;-64
2023/06/03 12:54:44;;;;;;;0.70;0.70;;;;;;;;;;5032597;28;20075;-64
2023/06/03 12:57:10;;;;;;;3.15;0.70;;;;;;;;;;5035945;28;20056;-63
2023/06/03 12:59:43;;;;;;;1.35;0.70;;;;;;;;;;5039257;28;20089;-66
2023/06/03 13:02:10;;;;;;;1.67;0.70;;;;;;;;;;5036516;28;20057;-65
2023/06/03 13:04:36;;;;;;;0.93;0.60;;;;;;;;;;5013874;28;20052;-64
2023/06/03 13:07:04;;;;;;;6.78;0.77;;;;;;;;;;4988236;28;20049;-64
2023/06/03 13:09:31;;;;;;;;;;;;;;;;;;5021389;28;20068;-64
2023/06/03 13:11:57;;;;;;;1.52;0.90;;;;;;;;;;5003118;28;20035;-65
2023/06/03 13:14:24;;;;;;;6.55;2.65;;;;;;;;;;5014133;28;20053;-63
2023/06/03 13:16:50;;;;;;;4.10;1.55;;;;;;;;;;4995977;28;20057;-64
2023/06/03 13:19:16;;;;;;;2.15;0.70;;;;;;;;;;5001161;28;20057;-64
2023/06/03 13:21:43;;;;;;;4.35;0.80;;;;;;;;;;5016504;28;20152;-65
2023/06/03 13:24:11;;;;;;;1.58;0.80;;;;;;;;;;5001897;28;20126;-64
2023/06/03 13:26:37;;;;;;;1.20;0.70;;;;;;;;;;5004408;28;20060;-64
2023/06/03 13:29:04;;;;;;;4.35;0.90;;;;;;;;;;5018904;28;20065;-64
2023/06/03 13:31:30;;;;;;;0.77;0.60;;;;;;;;;;5003594;28;20144;-64
2023/06/03 13:33:57;;;;;;;2.63;0.80;;;;;;;;;;5000326;28;20057;-64
2023/06/03 13:36:24;;;;;;;3.88;0.65;;;;;;;;;;5014996;28;20122;-65
2023/06/03 13:38:50;;;;;;;2.88;1.05;;;;;;;;;;4999522;28;20081;-65
2023/06/03 13:41:18;;;;;;;1.42;0.70;;;;;;;;;;5019710;28;20137;-65
2023/06/03 13:43:44;;;;;;;0.82;0.63;;;;;;;;;;5016219;28;20061;-66
2023/06/03 13:46:12;;;;;;;0.55;0.50;;;;;;;;;;4986949;28;20057;-64
2023/06/03 13:48:39;;;;;;;0.82;0.60;;;;;;;;;;4991664;28;20271;-64
2023/06/03 13:51:05;;;;;;;1.63;0.88;;;;;;;;;;5018742;28;20084;-65
2023/06/03 13:53:32;;;;;;;2.80;1.10;;;;;;;;;;5014640;28;20061;-65
2023/06/03 13:55:58;;;;;;;2.30;0.75;;;;;;;;;;4988968;28;20057;-64
2023/06/03 13:58:26;;;;;;;4.55;0.77;;;;;;;;;;5012736;28;20127;-65
2023/06/03 14:00:53;;;;;;;4.00;0.70;;;;;;;;;;5004008;28;20061;-64
2023/06/03 14:03:20;;;;;;;3.67;0.95;;;;;;;;;;5015858;28;20057;-64
2023/06/03 14:05:48;;;;;;;11.57;6.15;;;;;;;;;;4997833;28;20076;-64
2023/06/03 14:08:15;;;;;;;5.72;1.90;;;;;;;;;;5014804;28;20057;-66
2023/06/03 14:10:42;;;;;;;1.02;0.70;;;;;;;;;;5017928;28;20069;-64
2023/06/03 14:13:08;;;;;;;0.90;0.60;;;;;;;;;;4997301;28;20061;-67
2023/06/03 14:15:36;;;;;;;2.20;0.70;;;;;;;;;;4994193;28;20053;-67
2023/06/03 14:18:03;;;;;;;1.45;0.80;;;;;;;;;;5016858;28;20067;-66
2023/06/03 14:20:30;;;;;;;1.52;0.80;;;;;;;;;;5010470;28;20117;-65
2023/06/03 14:22:57;;;;;;;1.73;0.60;;;;;;;;;;5023043;28;20053;-65
2023/06/03 14:25:24;;;;;;;2.35;0.68;;;;;;;;;;4987316;28;20065;-65
2023/06/03 14:27:50;;;;;;;1.20;0.68;;;;;;;;;;5018309;28;20061;-65
2023/06/03 14:30:17;;;;;;;1.70;0.73;;;;;;;;;;4996656;28;20053;-66
2023/06/03 14:32:45;;;;;;;1.02;0.70;;;;;;;;;;5015013;28;20104;-66
2023/06/03 14:35:11;;;;;;;1.17;0.70;;;;;;;;;;5013814;28;20087;-64
2023/06/03 14:37:38;;;;;;;1.80;0.90;;;;;;;;;;5019198;28;20065;-64
2023/06/03 14:40:05;;;;;;;0.95;0.55;;;;;;;;;;5013874;28;20058;-65
2023/06/03 14:42:32;;;;;;;3.72;2.20;;;;;;;;;;5018047;28;20056;-65
2023/06/03 14:44:58;;;;;;;3.75;1.95;;;;;;;;;;5003938;28;20081;-64
2023/06/03 14:47:27;;;;;;;2.65;1.23;;;;;;;;;;5017096;28;20141;-63
2023/06/03 14:49:55;;;;;;;1.52;0.90;;;;;;;;;;5014878;28;20144;-66
2023/06/03 14:52:22;;;;;;;1.58;0.80;;;;;;;;;;5018472;28;20056;-66
2023/06/03 14:54:49;;;;;;;1.17;0.70;;;;;;;;;;5030023;28;20064;-67
2023/06/03 14:57:15;;;;;;;1.08;0.60;;;;;;;;;;5013911;28;20053;-66
2023/06/03 14:59:41;;;;;;;2.13;0.90;;;;;;;;;;4998532;28;20057;-67
2023/06/03 15:02:08;;;;;;;3.80;0.80;;;;;;;;;;4999929;28;20049;-64
2023/06/03 15:04:34;;;;;;;1.05;0.73;;;;;;;;;;5011813;28;20112;-64
2023/06/03 15:07:04;;;;;;;1.13;0.70;;;;;;;;;;5031197;28;20065;-66
2023/06/03 15:09:30;;;;;;;1.10;0.60;;;;;;;;;;5033662;28;20227;-66
2023/06/03 15:11:57;;;;;;;0.77;0.55;;;;;;;;;;5034409;28;20061;-66
2023/06/03 15:14:24;;;;;;;1.30;0.68;;;;;;;;;;5015698;28;20075;-67
2023/06/03 15:16:51;;;;;;;0.70;0.70;;;;;;;;;;5035469;28;20049;-66
2023/06/03 15:19:17;;;;;;;1.17;0.70;;;;;;;;;;5024847;28;20045;-67
2023/06/03 15:21:43;;;;;;;1.08;0.52;;;;;;;;;;5036619;28;20060;-65
2023/06/03 15:24:11;;;;;;;2.15;0.75;;;;;;;;;;5041966;28;20136;-66
2023/06/03 15:26:38;;;;;;;2.78;0.75;;;;;;;;;;4990530;28;20159;-66
2023/06/03 15:29:04;;;;;;;2.38;1.20;;;;;;;;;;5022545;28;20061;-68
2023/06/03 15:31:31;;;;;;;1.98;0.70;;;;;;;;;;5036708;28;20061;-68
2023/06/03 15:33:57;;;;;;;4.05;0.90;;;;;;;;;;5023981;28;20126;-65
2023/06/03 15:36:23;;;;;;;2.70;0.80;;;;;;;;;;5019319;28;20068;-67
2023/06/03 15:38:50;;;;;;;1.83;0.70;;;;;;;;;;5026303;28;20057;-67
2023/06/03 15:41:18;;;;;;;0.80;0.52;;;;;;;;;;5038376;28;20116;-67
2023/06/03 15:43:44;;;;;;;1.35;0.60;;;;;;;;;;5021842;28;20059;-66
2023/06/03 15:46:11;;;;;;;5.05;0.77;;;;;;;;;;5035911;28;20055;-66
2023/06/03 15:48:37;;;;;;;3.33;0.95;;;;;;;;;;5012423;28;20065;-64
2023/06/03 15:51:03;;;;;;;2.60;0.60;;;;;;;;;;5023045;28;20092;-66
2023/06/03 15:53:30;;;;;;;3.22;1.95;;;;;;;;;;5020831;28;20060;-67
2023/06/03 15:55:56;;;;;;;5.30;0.80;;;;;;;;;;5030808;28;20059;-68
2023/06/03 15:58:24;;;;;;;2.38;1.00;;;;;;;;;;5013348;28;20052;-71
2023/06/03 16:00:50;;;;;;;;;;;;;;;;;;5039136;28;20049;-67
2023/06/03 16:03:17;;;;;;;3.00;0.70;;;;;;;;;;5031907;28;19924;-67
2023/06/03 16:05:43;;;;;;;2.88;0.80;;;;;;;;;;5036812;28;20063;-69
2023/06/03 16:08:10;;;;;;;2.35;0.82;;;;;;;;;;5018064;28;20045;-68
2023/06/03 16:10:37;;;;;;;4.55;0.70;;;;;;;;;;5009714;28;20048;-68
2023/06/03 16:13:03;;;;;;;1.25;0.82;;;;;;;;;;5018974;28;20044;-68
2023/06/03 16:15:31;;;;;;;2.05;0.80;;;;;;;;;;5026993;28;20152;-68
2023/06/03 16:17:58;;;;;;;3.05;0.80;;;;;;;;;;5020033;28;20147;-68
2023/06/03 16:20:25;;;;;;;3.25;0.80;;;;;;;;;;5033113;28;20084;-68
2023/06/03 16:22:51;;;;;;;9.60;5.38;;;;;;;;;;5022865;28;20060;-68
2023/06/03 16:25:18;;;;;;;5.43;2.17;;;;;;;;;;5001471;28;20065;-68
2023/06/03 16:27:46;;;;;;;0.80;0.77;;;;;;;;;;5025457;28;20065;-68
2023/06/03 16:30:14;;;;;;;1.35;0.80;;;;;;;;;;5020181;28;20064;-67
2023/06/03 16:32:42;;;;;;;7.18;0.90;;;;;;;;;;5036061;28;21666;-67
2023/06/03 16:35:11;;;;;;;8.00;0.90;;;;;;;;;;5001285;28;20064;-68
2023/06/03 16:37:39;;;;;;;3.15;1.10;;;;;;;;;;5025858;28;20057;-68
2023/06/03 16:40:06;;;;;;;2.63;1.48;;;;;;;;;;5025096;28;20071;-67
2023/06/03 16:42:33;;;;;;;1.70;0.80;;;;;;;;;;5030513;28;20064;-69
2023/06/03 16:44:59;;;;;;;1.95;0.80;;;;;;;;;;5025609;28;20143;-68
2023/06/03 16:47:27;;;;;;;3.08;1.00;;;;;;;;;;5016010;28;20112;-68
2023/06/03 16:49:55;;;;;;;1.95;0.85;;;;;;;;;;5035361;28;20056;-68
2023/06/03 16:52:22;;;;;;;1.80;0.95;;;;;;;;;;5033858;28;20134;-69
2023/06/03 16:54:51;;;;;;;4.70;1.00;;;;;;;;;;5013270;28;20214;-68
2023/06/03 16:57:18;;;;;;;1.20;0.60;;;;;;;;;;5037367;28;20049;-68